Time;durP1;ratioP1;P1;durP2;ratioP2;P2;SDS_P1;SDS_P2;PMS_P1;PMS_P2;Temp;Humidity;BMP_temperature;BMP_pressure;BME280_temperature;BME280_humidity;BME280_pressure;Samples;Min_cycle;Max_cycle;Signal;HPM_P1;HPM_P2
2021/08/15 00:00:38;;;;;;;9.85;6.85;;;15.10;99.90;;;;;;5027567;28;20096;-53
2021/08/15 00:03:04;;;;;;;11.50;7.93;;;15.00;99.90;;;;;;5028084;28;20044;-52
2021/08/15 00:05:29;;;;;;;13.35;7.45;;;15.00;99.90;;;;;;5027946;28;20013;-49
2021/08/15 00:07:55;;;;;;;17.77;8.80;;;15.00;99.90;;;;;;5027251;28;20026;-53
2021/08/15 00:10:21;;;;;;;17.65;9.07;;;14.90;99.90;;;;;;5027867;28;20064;-49
2021/08/15 00:12:47;;;;;;;9.43;6.57;;;14.90;99.90;;;;;;5028021;28;20025;-55
2021/08/15 00:15:14;;;;;;;11.85;7.70;;;14.90;99.90;;;;;;5027298;28;20021;-53
2021/08/15 00:17:41;;;;;;;16.10;7.03;;;14.90;99.90;;;;;;5027518;28;20025;-51
2021/08/15 00:20:09;;;;;;;12.98;6.15;;;14.90;99.90;;;;;;5026322;28;20083;-48
2021/08/15 00:22:39;;;;;;;15.82;7.28;;;14.90;99.90;;;;;;5030011;28;20025;-51
2021/08/15 00:25:10;;;;;;;15.02;6.68;;;14.80;99.90;;;;;;5030022;28;20117;-52
2021/08/15 00:27:36;;;;;;;15.52;6.65;;;14.90;99.90;;;;;;5029152;28;20112;-53
2021/08/15 00:30:03;;;;;;;13.13;5.97;;;14.90;99.90;;;;;;5025742;28;20136;-49
2021/08/15 00:32:29;;;;;;;12.52;5.40;;;14.90;99.90;;;;;;5029329;28;20027;-51
2021/08/15 00:34:55;;;;;;;13.75;6.05;;;14.90;99.90;;;;;;5026722;28;20026;-53
2021/08/15 00:37:21;;;;;;;9.80;5.57;;;14.90;99.90;;;;;;5027000;28;20022;-51
2021/08/15 00:39:47;;;;;;;10.10;5.03;;;15.00;99.90;;;;;;5029211;28;20014;-51
2021/08/15 00:42:12;;;;;;;13.95;6.03;;;15.00;99.90;;;;;;5030309;28;20033;-53
2021/08/15 00:44:38;;;;;;;11.82;5.75;;;15.00;99.90;;;;;;5031050;28;20083;-52
2021/08/15 00:47:07;;;;;;;6.63;4.57;;;15.00;99.90;;;;;;5029860;28;20049;-52
2021/08/15 00:49:33;;;;;;;11.90;5.60;;;15.00;99.90;;;;;;5031417;28;20021;-50
2021/08/15 00:51:59;;;;;;;11.10;6.43;;;15.10;99.90;;;;;;5031462;28;20071;-53
2021/08/15 00:54:25;;;;;;;9.35;5.47;;;15.00;99.90;;;;;;5029845;28;20571;-54
2021/08/15 00:56:54;;;;;;;9.48;5.28;;;15.10;99.90;;;;;;5030975;28;20021;-49
2021/08/15 00:59:23;;;;;;;10.43;5.70;;;15.10;99.90;;;;;;5026380;28;20021;-51
2021/08/15 01:01:51;;;;;;;9.95;4.88;;;15.10;99.90;;;;;;5029125;28;20029;-49
2021/08/15 01:04:17;;;;;;;12.60;5.05;;;15.10;99.90;;;;;;5029307;28;20483;-51
2021/08/15 01:06:42;;;;;;;10.75;4.70;;;15.10;99.90;;;;;;5030842;28;20073;-54
2021/08/15 01:09:08;;;;;;;12.30;5.95;;;15.10;99.90;;;;;;5030518;28;20033;-53
2021/08/15 01:11:34;;;;;;;12.20;5.20;;;15.10;99.90;;;;;;5030734;28;20029;-52
2021/08/15 01:14:05;;;;;;;8.45;5.00;;;15.10;99.90;;;;;;5031200;28;20101;-52
2021/08/15 01:16:31;;;;;;;20.20;6.15;;;15.10;99.90;;;;;;5030074;28;20599;-50
2021/08/15 01:18:57;;;;;;;14.35;5.47;;;15.10;99.90;;;;;;5031364;28;20096;-51
2021/08/15 01:21:23;;;;;;;12.30;5.43;;;15.20;99.90;;;;;;5030585;28;20029;-49
2021/08/15 01:23:49;;;;;;;8.88;4.85;;;15.10;99.90;;;;;;5031107;28;20029;-49
2021/08/15 01:26:19;;;;;;;10.52;5.25;;;15.20;99.90;;;;;;5029322;28;20033;-50
2021/08/15 01:28:46;;;;;;;13.68;5.13;;;15.20;99.90;;;;;;5031327;28;20025;-52
2021/08/15 01:31:12;;;;;;;6.85;4.93;;;15.20;99.90;;;;;;5030781;28;20025;-50
2021/08/15 01:33:39;;;;;;;8.13;4.57;;;15.20;99.90;;;;;;5026615;28;20662;-50
2021/08/15 01:36:06;;;;;;;7.00;4.10;;;15.20;99.90;;;;;;5028430;28;20025;-52
2021/08/15 01:38:35;;;;;;;8.02;4.63;;;15.20;99.90;;;;;;5030412;28;20078;-54
2021/08/15 01:41:01;;;;;;;10.32;5.25;;;15.30;99.90;;;;;;5030465;28;20029;-55
2021/08/15 01:43:28;;;;;;;11.27;5.07;;;15.30;99.90;;;;;;5030192;28;20029;-53
2021/08/15 01:45:54;;;;;;;9.82;4.28;;;15.30;99.90;;;;;;5029942;28;20031;-52
2021/08/15 01:48:20;;;;;;;9.60;4.88;;;15.30;99.90;;;;;;5030673;28;20022;-48
2021/08/15 01:50:47;;;;;;;6.43;4.47;;;15.30;99.90;;;;;;5030324;28;20032;-52
2021/08/15 01:53:16;;;;;;;9.88;4.22;;;15.40;99.90;;;;;;5030186;28;20022;-53
2021/08/15 01:55:42;;;;;;;6.57;4.20;;;15.40;99.90;;;;;;5030256;28;20025;-50
2021/08/15 01:58:10;;;;;;;9.45;4.45;;;15.40;99.90;;;;;;5030729;28;20042;-52
2021/08/15 02:00:40;;;;;;;7.78;4.78;;;15.40;99.90;;;;;;5029214;28;20071;-51
2021/08/15 02:03:07;;;;;;;7.95;4.57;;;15.40;99.90;;;;;;5030426;28;20499;-50
2021/08/15 02:05:33;;;;;;;12.00;4.50;;;15.40;99.90;;;;;;5030496;28;20049;-50
2021/08/15 02:07:59;;;;;;;10.57;5.00;;;15.40;99.90;;;;;;5030207;28;20045;-50
2021/08/15 02:10:27;;;;;;;13.10;4.65;;;15.50;99.90;;;;;;5025359;28;20052;-54
2021/08/15 02:12:53;;;;;;;8.77;4.28;;;15.50;99.90;;;;;;5029288;28;20037;-52
2021/08/15 02:15:19;;;;;;;10.43;4.60;;;15.50;99.90;;;;;;5029971;28;20021;-49
2021/08/15 02:17:46;;;;;;;7.97;4.55;;;15.50;99.90;;;;;;5028255;28;20037;-49
2021/08/15 02:20:13;;;;;;;8.77;3.88;;;15.60;99.90;;;;;;5029573;28;20025;-51
2021/08/15 02:22:39;;;;;;;9.20;4.60;;;15.60;99.90;;;;;;5029150;28;20029;-52
2021/08/15 02:25:07;;;;;;;10.10;4.68;;;15.60;99.90;;;;;;5026543;28;20041;-50
2021/08/15 02:27:33;;;;;;;5.97;3.83;;;15.60;99.90;;;;;;5019948;28;20029;-49
2021/08/15 02:29:59;;;;;;;8.75;4.43;;;15.60;99.90;;;;;;5025665;28;20399;-49
2021/08/15 02:32:24;;;;;;;10.40;4.20;;;15.60;99.90;;;;;;5029486;28;20026;-50
2021/08/15 02:34:50;;;;;;;9.70;3.72;;;15.60;99.90;;;;;;5022526;28;20018;-53
2021/08/15 02:37:17;;;;;;;6.70;3.55;;;15.60;99.90;;;;;;5028786;28;20043;-50
2021/08/15 02:39:42;;;;;;;9.98;4.10;;;15.70;99.90;;;;;;5029466;28;20394;-55
2021/08/15 02:42:08;;;;;;;6.78;3.88;;;15.70;99.90;;;;;;5029337;28;20013;-50
2021/08/15 02:44:34;;;;;;;5.15;3.25;;;15.70;99.90;;;;;;5028341;28;20463;-50
2021/08/15 02:46:59;;;;;;;9.13;5.00;;;15.60;99.90;;;;;;5029024;28;20029;-50
2021/08/15 02:49:25;;;;;;;5.57;3.95;;;15.60;99.90;;;;;;5028862;28;20072;-50
2021/08/15 02:51:50;;;;;;;8.82;4.25;;;15.60;99.90;;;;;;5029195;28;20052;-49
2021/08/15 02:54:16;;;;;;;10.15;4.68;;;15.60;99.90;;;;;;5029280;28;20033;-49
2021/08/15 02:56:41;;;;;;;8.00;4.13;;;15.60;99.90;;;;;;5029342;28;20055;-51
2021/08/15 02:59:07;;;;;;;7.88;4.40;;;15.60;99.90;;;;;;5029523;28;20022;-51
2021/08/15 03:01:32;;;;;;;7.85;3.97;;;15.50;99.90;;;;;;5028145;28;20025;-48
2021/08/15 03:03:58;;;;;;;11.10;4.65;;;15.60;99.90;;;;;;5028992;28;20025;-48
2021/08/15 03:06:23;;;;;;;5.50;3.95;;;15.50;99.90;;;;;;5028869;28;20491;-48
2021/08/15 03:08:49;;;;;;;11.13;4.65;;;15.50;99.90;;;;;;5029273;28;20155;-48
2021/08/15 03:11:15;;;;;;;6.68;4.13;;;15.50;99.90;;;;;;5029181;28;20033;-47
2021/08/15 03:13:40;;;;;;;10.20;4.10;;;15.50;99.90;;;;;;5028864;28;20026;-47
2021/08/15 03:16:06;;;;;;;10.55;4.63;;;15.40;99.90;;;;;;5026028;28;20052;-48
2021/08/15 03:18:31;;;;;;;8.25;4.95;;;15.40;99.90;;;;;;5029237;28;20017;-45
2021/08/15 03:20:57;;;;;;;8.63;5.00;;;15.40;99.90;;;;;;5028909;28;20029;-48
2021/08/15 03:23:22;;;;;;;7.80;4.38;;;15.40;99.90;;;;;;5028937;28;20101;-46
2021/08/15 03:25:48;;;;;;;7.18;4.75;;;15.40;99.90;;;;;;5028276;28;20032;-48
2021/08/15 03:28:13;;;;;;;9.98;5.03;;;15.40;99.90;;;;;;5028610;28;20025;-48
2021/08/15 03:30:39;;;;;;;9.48;5.38;;;15.40;99.90;;;;;;5028936;28;20052;-48
2021/08/15 03:33:04;;;;;;;9.18;4.90;;;15.40;99.90;;;;;;5028592;28;20021;-49
2021/08/15 03:35:30;;;;;;;7.13;4.63;;;15.30;99.90;;;;;;5026479;28;20136;-46
2021/08/15 03:37:56;;;;;;;7.60;5.22;;;15.30;99.90;;;;;;5024554;28;20532;-47
2021/08/15 03:40:21;;;;;;;7.50;4.55;;;15.30;99.90;;;;;;5028446;28;20036;-47
2021/08/15 03:42:47;;;;;;;9.85;5.20;;;15.30;99.90;;;;;;5028134;28;20021;-48
2021/08/15 03:45:12;;;;;;;9.68;5.07;;;15.30;99.90;;;;;;5027872;28;20029;-48
2021/08/15 03:47:38;;;;;;;8.77;4.50;;;15.30;99.90;;;;;;5028177;28;20037;-50
2021/08/15 03:50:08;;;;;;;9.23;4.63;;;15.30;99.90;;;;;;5025882;28;20052;-48
2021/08/15 03:52:41;;;;;;;9.32;4.68;;;15.30;99.90;;;;;;5028264;28;20379;-47
2021/08/15 03:55:10;;;;;;;8.23;4.97;;;15.30;99.90;;;;;;5026322;28;20029;-51
2021/08/15 03:57:36;;;;;;;7.93;4.90;;;15.30;99.90;;;;;;5026727;28;20018;-50
2021/08/15 04:00:04;;;;;;;9.65;5.50;;;15.30;99.90;;;;;;5026679;28;20021;-51
2021/08/15 04:02:29;;;;;;;10.50;5.40;;;15.20;99.90;;;;;;5027933;28;20025;-49
2021/08/15 04:04:55;;;;;;;6.90;5.35;;;15.30;99.90;;;;;;5027619;28;20068;-48
2021/08/15 04:07:20;;;;;;;9.32;5.00;;;15.30;99.90;;;;;;5027805;28;20033;-49
2021/08/15 04:09:46;;;;;;;5.25;4.28;;;15.30;99.90;;;;;;5028049;28;20022;-47
2021/08/15 04:12:11;;;;;;;5.38;4.28;;;15.20;99.90;;;;;;5027763;28;20447;-50
2021/08/15 04:14:37;;;;;;;5.90;3.80;;;15.20;99.90;;;;;;5027256;28;20770;-51
2021/08/15 04:17:03;;;;;;;7.05;3.85;;;15.20;99.90;;;;;;5027737;28;20040;-48
2021/08/15 04:19:28;;;;;;;6.50;3.90;;;15.20;99.90;;;;;;5027497;28;20022;-50
2021/08/15 04:21:54;;;;;;;5.93;4.85;;;15.20;99.90;;;;;;5027920;28;20546;-48
2021/08/15 04:24:20;;;;;;;6.85;4.53;;;15.30;99.90;;;;;;5027779;28;20527;-52
2021/08/15 04:26:46;;;;;;;4.55;4.15;;;15.30;99.90;;;;;;5122720;23;20018;-50
2021/08/15 04:29:13;;;;;;;5.72;4.38;;;15.20;99.90;;;;;;4988083;28;20039;-50
2021/08/15 04:31:42;;;;;;;7.03;4.95;;;15.30;99.90;;;;;;4988106;28;20077;-47
2021/08/15 04:34:07;;;;;;;8.70;4.55;;;15.30;99.90;;;;;;4988022;28;20098;-47
2021/08/15 04:36:33;;;;;;;7.90;5.03;;;15.30;99.90;;;;;;4987771;28;20101;-48
2021/08/15 04:38:58;;;;;;;7.68;4.88;;;15.30;99.90;;;;;;4987915;28;20037;-47
2021/08/15 04:41:24;;;;;;;8.23;4.78;;;15.40;99.90;;;;;;4988302;28;20025;-48
2021/08/15 04:43:50;;;;;;;5.25;4.53;;;15.30;99.90;;;;;;4987929;28;20038;-47
2021/08/15 04:46:16;;;;;;;5.80;4.75;;;15.30;99.90;;;;;;4987842;28;20060;-48
2021/08/15 04:48:41;;;;;;;5.97;4.65;;;15.30;99.90;;;;;;4986374;28;20105;-46
2021/08/15 04:51:07;;;;;;;7.18;4.63;;;15.40;99.90;;;;;;4987874;28;20077;-47
2021/08/15 04:53:33;;;;;;;6.28;4.43;;;15.40;99.90;;;;;;4988123;28;20037;-47
2021/08/15 04:55:58;;;;;;;6.68;5.28;;;15.40;99.90;;;;;;4987973;28;20510;-46
2021/08/15 04:58:24;;;;;;;5.10;4.55;;;15.40;99.90;;;;;;4988220;28;20022;-50
2021/08/15 05:00:49;;;;;;;4.57;4.15;;;15.40;99.90;;;;;;4988085;28;20021;-50
2021/08/15 05:03:16;;;;;;;5.43;4.80;;;15.50;99.90;;;;;;4988050;28;20477;-47
2021/08/15 05:05:42;;;;;;;6.45;4.43;;;15.50;99.90;;;;;;4988050;28;20495;-49
2021/08/15 05:08:07;;;;;;;4.95;3.92;;;15.50;99.90;;;;;;4989657;28;20027;-48
2021/08/15 05:10:33;;;;;;;4.18;3.70;;;15.50;99.90;;;;;;4992019;28;20113;-49
2021/08/15 05:12:59;;;;;;;6.05;3.88;;;15.50;99.90;;;;;;4989536;28;20123;-47
2021/08/15 05:15:24;;;;;;;5.13;3.72;;;15.50;99.90;;;;;;4991976;28;20027;-47
2021/08/15 05:17:50;;;;;;;3.75;3.35;;;15.50;99.90;;;;;;4991071;28;20019;-46
2021/08/15 05:20:16;;;;;;;5.70;4.18;;;15.50;99.90;;;;;;4991362;28;20035;-47
2021/08/15 05:22:41;;;;;;;4.72;4.30;;;15.50;99.90;;;;;;4991275;28;20077;-46
2021/08/15 05:25:08;;;;;;;5.22;4.25;;;15.50;99.90;;;;;;4991273;28;20042;-50
2021/08/15 05:27:33;;;;;;;5.40;4.18;;;15.50;99.90;;;;;;4991110;28;20046;-50
2021/08/15 05:29:59;;;;;;;6.70;3.65;;;15.50;99.90;;;;;;4988612;28;22008;-50
2021/08/15 05:32:25;;;;;;;3.97;3.25;;;15.60;99.90;;;;;;4991619;28;20076;-49
2021/08/15 05:34:51;;;;;;;4.03;3.70;;;15.50;99.90;;;;;;4990595;28;20102;-46
2021/08/15 05:37:16;;;;;;;4.60;3.50;;;15.50;99.90;;;;;;4991844;28;20453;-47
2021/08/15 05:39:42;;;;;;;4.50;3.40;;;15.50;99.90;;;;;;4991707;28;20098;-49
2021/08/15 05:42:07;;;;;;;4.22;3.00;;;15.60;99.90;;;;;;4991124;28;20448;-47
2021/08/15 05:44:33;;;;;;;3.22;2.40;;;15.50;99.90;;;;;;4990879;28;20026;-46
2021/08/15 05:46:59;;;;;;;5.32;3.25;;;15.60;99.90;;;;;;4991232;28;20431;-48
2021/08/15 05:49:24;;;;;;;3.40;3.03;;;15.50;99.90;;;;;;4991239;28;20053;-45
2021/08/15 05:51:50;;;;;;;6.38;3.45;;;15.50;99.90;;;;;;4990059;28;20142;-50
2021/08/15 05:54:15;;;;;;;5.00;2.90;;;15.50;99.90;;;;;;4990799;28;20388;-45
2021/08/15 05:56:41;;;;;;;4.43;2.75;;;15.40;99.90;;;;;;4990934;28;20381;-50
2021/08/15 05:59:06;;;;;;;4.00;2.78;;;15.40;99.90;;;;;;4991038;28;20014;-45
2021/08/15 06:01:33;;;;;;;2.38;2.10;;;15.40;99.90;;;;;;4991053;28;20088;-47
2021/08/15 06:04:03;;;;;;;2.30;2.10;;;15.40;99.90;;;;;;4990681;28;20030;-46
2021/08/15 06:06:28;;;;;;;2.67;2.33;;;15.40;99.90;;;;;;4990797;28;20509;-51
2021/08/15 06:08:54;;;;;;;4.10;2.35;;;15.40;99.90;;;;;;4989872;28;20041;-45
2021/08/15 06:11:20;;;;;;;2.42;2.20;;;15.40;99.90;;;;;;4991192;28;20042;-47
2021/08/15 06:13:46;;;;;;;5.15;2.38;;;15.40;99.90;;;;;;4990860;28;20025;-46
2021/08/15 06:16:11;;;;;;;2.90;1.90;;;15.40;99.90;;;;;;4990450;28;20027;-48
2021/08/15 06:18:37;;;;;;;3.80;2.33;;;15.40;99.90;;;;;;4990554;28;20032;-48
2021/08/15 06:21:02;;;;;;;5.90;2.70;;;15.40;99.90;;;;;;4989560;28;20042;-47
2021/08/15 06:23:28;;;;;;;2.65;2.40;;;15.40;99.90;;;;;;4990626;28;20025;-48
2021/08/15 06:25:54;;;;;;;3.08;2.78;;;15.40;99.90;;;;;;4990438;28;20564;-46
2021/08/15 06:28:19;;;;;;;3.83;2.47;;;15.40;99.90;;;;;;4990433;28;20112;-51
2021/08/15 06:30:45;;;;;;;5.53;2.78;;;15.50;99.90;;;;;;4990529;28;20030;-50
2021/08/15 06:33:10;;;;;;;6.18;2.85;;;15.50;99.90;;;;;;4989951;28;20038;-47
2021/08/15 06:35:36;;;;;;;8.00;3.60;;;15.60;99.90;;;;;;4990085;28;20015;-47
2021/08/15 06:38:02;;;;;;;4.75;3.03;;;15.60;99.90;;;;;;4990548;28;20026;-46
2021/08/15 06:40:28;;;;;;;4.28;3.40;;;15.70;99.90;;;;;;4990837;28;20018;-48
2021/08/15 06:43:07;;;;;;;5.90;3.47;;;15.70;99.90;;;;;;4990599;28;20105;-48
2021/08/15 06:45:33;;;;;;;4.28;3.42;;;15.80;99.90;;;;;;4990143;28;20025;-46
2021/08/15 06:47:59;;;;;;;3.80;2.97;;;15.90;99.90;;;;;;4990085;28;20463;-46
2021/08/15 06:50:25;;;;;;;4.22;3.00;;;15.90;99.90;;;;;;4990018;28;20102;-49
2021/08/15 06:52:50;;;;;;;4.90;3.15;;;15.90;99.90;;;;;;4990226;28;20031;-49
2021/08/15 06:55:16;;;;;;;4.95;3.10;;;16.00;99.90;;;;;;4989530;28;20046;-52
2021/08/15 06:57:41;;;;;;;6.10;3.47;;;16.00;99.90;;;;;;4988449;28;20502;-49
2021/08/15 07:00:08;;;;;;;6.18;3.97;;;16.00;99.90;;;;;;4989907;28;20041;-48
2021/08/15 07:02:37;;;;;;;8.27;4.32;;;16.10;99.90;;;;;;4989885;28;20014;-49
2021/08/15 07:05:07;;;;;;;4.18;2.85;;;16.10;99.90;;;;;;4989193;28;20027;-46
2021/08/15 07:07:33;;;;;;;4.53;2.63;;;16.10;99.90;;;;;;4989255;28;20508;-48
2021/08/15 07:09:59;;;;;;;3.72;2.47;;;16.00;99.90;;;;;;4989508;28;20042;-46
2021/08/15 07:12:24;;;;;;;4.47;2.30;;;16.00;99.90;;;;;;4989822;28;20010;-47
2021/08/15 07:14:50;;;;;;;5.43;2.50;;;15.90;99.90;;;;;;4989265;28;20033;-48
2021/08/15 07:17:16;;;;;;;4.20;2.33;;;15.90;99.90;;;;;;4989357;28;20113;-51
2021/08/15 07:19:41;;;;;;;2.35;2.10;;;15.80;99.90;;;;;;4986320;28;20034;-50
2021/08/15 07:22:07;;;;;;;4.97;2.38;;;15.80;99.90;;;;;;4974878;28;20120;-52
2021/08/15 07:24:32;;;;;;;2.33;1.98;;;15.80;99.90;;;;;;4977485;28;20488;-46
2021/08/15 07:26:58;;;;;;;2.92;2.22;;;15.80;99.90;;;;;;4973612;28;20034;-47
2021/08/15 07:29:24;;;;;;;3.20;2.28;;;15.80;99.90;;;;;;4985687;28;20311;-46
2021/08/15 07:31:50;;;;;;;4.15;2.22;;;15.80;99.90;;;;;;4989356;28;20221;-46
2021/08/15 07:34:16;;;;;;;4.82;2.95;;;15.70;99.90;;;;;;4988816;28;20030;-44
2021/08/15 07:36:41;;;;;;;7.22;2.78;;;15.70;99.90;;;;;;4987966;28;20077;-48
2021/08/15 07:39:07;;;;;;;3.22;2.47;;;15.70;99.90;;;;;;5002420;28;20073;-45
2021/08/15 07:41:33;;;;;;;4.00;2.05;;;15.70;99.90;;;;;;4988168;28;20042;-45
2021/08/15 07:43:58;;;;;;;4.57;2.55;;;15.70;99.90;;;;;;4987604;28;20030;-46
2021/08/15 07:46:24;;;;;;;5.13;2.75;;;15.70;99.90;;;;;;4987311;28;20022;-47
2021/08/15 07:48:49;;;;;;;4.93;2.85;;;15.80;99.90;;;;;;4987606;28;20140;-47
2021/08/15 07:51:16;;;;;;;6.20;2.30;;;15.90;99.90;;;;;;4987550;28;20027;-45
2021/08/15 07:53:42;;;;;;;3.75;2.72;;;15.90;99.90;;;;;;4988285;28;20473;-46
2021/08/15 07:56:07;;;;;;;5.65;2.65;;;15.90;99.90;;;;;;4988760;28;20022;-45
2021/08/15 07:58:33;;;;;;;3.22;2.20;;;16.00;99.90;;;;;;4988817;28;20092;-45
2021/08/15 08:00:58;;;;;;;4.43;2.28;;;16.00;99.90;;;;;;4988967;28;20126;-45
2021/08/15 08:03:24;;;;;;;2.50;2.30;;;16.00;99.90;;;;;;4989167;28;20546;-48
2021/08/15 08:05:50;;;;;;;5.13;2.47;;;16.00;99.90;;;;;;4988837;28;20408;-46
2021/08/15 08:08:16;;;;;;;3.85;2.80;;;16.10;99.90;;;;;;4988670;28;20395;-46
2021/08/15 08:10:42;;;;;;;4.15;2.50;;;16.10;99.90;;;;;;4987023;28;20026;-45
2021/08/15 08:13:09;;;;;;;3.92;2.70;;;16.20;99.90;;;;;;4989147;28;20481;-45
2021/08/15 08:15:36;;;;;;;3.17;2.60;;;16.20;99.90;;;;;;4989052;28;20053;-48
2021/08/15 08:18:02;;;;;;;3.70;2.67;;;16.20;99.90;;;;;;4988802;28;20389;-46
2021/08/15 08:20:31;;;;;;;3.15;2.30;;;16.20;99.90;;;;;;4989147;28;20129;-45
2021/08/15 08:22:56;;;;;;;4.30;2.63;;;16.20;99.90;;;;;;4988591;28;20571;-46
2021/08/15 08:25:22;;;;;;;2.85;2.65;;;16.20;99.90;;;;;;4988758;28;20110;-48
2021/08/15 08:27:47;;;;;;;4.00;2.55;;;16.20;99.90;;;;;;4988817;28;20069;-47
2021/08/15 08:30:13;;;;;;;3.88;2.80;;;16.30;99.90;;;;;;4989082;28;20424;-49
2021/08/15 08:32:39;;;;;;;3.70;2.55;;;16.30;99.90;;;;;;4989159;28;20094;-51
2021/08/15 08:35:05;;;;;;;4.20;2.67;;;16.40;99.90;;;;;;4987708;28;20057;-49
2021/08/15 08:37:30;;;;;;;3.22;2.42;;;16.50;99.90;;;;;;4988733;28;20019;-49
2021/08/15 08:39:59;;;;;;;2.65;2.45;;;16.50;99.90;;;;;;4988621;28;20024;-47
2021/08/15 08:42:31;;;;;;;4.65;2.30;;;16.70;99.90;;;;;;4982357;28;20022;-48
2021/08/15 08:45:00;;;;;;;3.60;2.70;;;16.70;99.90;;;;;;4992942;28;20023;-50
2021/08/15 08:47:27;;;;;;;2.78;2.38;;;16.70;99.90;;;;;;4993185;28;20072;-51
2021/08/15 08:49:53;;;;;;;3.47;2.10;;;16.80;99.90;;;;;;4993222;28;20031;-50
2021/08/15 08:52:20;;;;;;;2.58;2.38;;;16.80;99.90;;;;;;4992978;28;20032;-50
2021/08/15 08:54:46;;;;;;;2.67;2.15;;;16.80;99.90;;;;;;4991086;28;20069;-48
2021/08/15 08:57:11;;;;;;;5.72;2.38;;;16.90;99.90;;;;;;4992392;28;20031;-52
2021/08/15 08:59:38;;;;;;;3.58;2.70;;;17.00;99.90;;;;;;4992666;28;20038;-50
2021/08/15 09:02:04;;;;;;;5.95;2.80;;;17.10;99.90;;;;;;4992498;28;20026;-49
2021/08/15 09:04:30;;;;;;;4.75;3.03;;;17.10;99.90;;;;;;4985848;28;20022;-52
2021/08/15 09:07:00;;;;;;;6.05;2.85;;;17.10;99.90;;;;;;4992707;28;20259;-47
2021/08/15 09:09:26;;;;;;;3.15;2.45;;;17.20;99.90;;;;;;4992449;28;20035;-50
2021/08/15 09:11:58;;;;;;;3.28;2.83;;;17.30;99.90;;;;;;4992377;28;20192;-51
2021/08/15 09:14:24;;;;;;;3.38;2.50;;;17.40;99.90;;;;;;4989800;28;20412;-51
2021/08/15 09:16:53;;;;;;;6.30;3.03;;;17.50;99.90;;;;;;4991918;28;20019;-49
2021/08/15 09:19:27;;;;;;;4.38;2.92;;;17.60;99.90;;;;;;4988583;28;20018;-51
2021/08/15 09:21:56;;;;;;;3.47;2.40;;;17.90;99.90;;;;;;4992455;28;20026;-50
2021/08/15 09:24:22;;;;;;;4.30;2.85;;;18.10;99.90;;;;;;4991589;28;20101;-49
2021/08/15 09:26:56;;;;;;;2.88;2.53;;;18.30;99.90;;;;;;4991780;28;20058;-48
2021/08/15 09:29:22;;;;;;;4.13;2.95;;;18.50;99.90;;;;;;4991937;28;20033;-51
2021/08/15 09:31:48;;;;;;;3.22;2.75;;;18.50;99.90;;;;;;4990608;28;20049;-49
2021/08/15 09:34:26;;;;;;;5.60;2.13;;;18.50;99.90;;;;;;4991289;28;20503;-48
2021/08/15 09:36:52;;;;;;;3.25;2.33;;;18.40;99.90;;;;;;4987782;28;20023;-50
2021/08/15 09:39:30;;;;;;;2.97;2.38;;;18.40;99.90;;;;;;4984581;28;20110;-54
2021/08/15 09:41:55;;;;;;;3.65;2.55;;;18.40;99.90;;;;;;4991012;28;20026;-48
2021/08/15 09:44:29;;;;;;;3.65;2.50;;;18.50;99.90;;;;;;4991357;28;20096;-54
2021/08/15 09:46:58;;;;;;;3.55;2.45;;;18.50;99.90;;;;;;4991314;28;20030;-52
2021/08/15 09:49:34;;;;;;;5.95;3.15;;;18.50;99.90;;;;;;4991108;28;20034;-52
2021/08/15 09:52:00;;;;;;;8.70;3.70;;;18.50;99.90;;;;;;4991167;28;20471;-53
2021/08/15 09:54:25;;;;;;;4.30;3.88;;;18.60;99.90;;;;;;4989607;28;20029;-55
2021/08/15 09:56:51;;;;;;;5.40;4.05;;;18.50;99.90;;;;;;4990775;28;20033;-51
2021/08/15 09:59:19;;;;;;;5.95;4.93;;;18.50;99.90;;;;;;4991021;28;20015;-54
2021/08/15 10:01:55;;;;;;;4.88;4.28;;;18.50;99.90;;;;;;4990751;28;20069;-54
2021/08/15 10:04:21;;;;;;;;;;;18.40;99.90;;;;;;4990221;28;20061;-49
2021/08/15 10:06:48;;;;;;;9.38;5.75;;;18.40;99.90;;;;;;4991004;28;19921;-51
2021/08/15 10:09:14;;;;;;;7.53;6.72;;;18.40;99.90;;;;;;4989686;28;20411;-49
2021/08/15 10:11:41;;;;;;;12.55;7.53;;;18.40;99.90;;;;;;4991101;28;20026;-54
2021/08/15 10:14:09;;;;;;;10.30;7.10;;;18.50;99.90;;;;;;4990211;28;20026;-53
2021/08/15 10:16:43;;;;;;;14.10;9.60;;;18.50;99.90;;;;;;4989070;28;20018;-53
2021/08/15 10:19:11;;;;;;;12.85;9.63;;;18.60;99.90;;;;;;4990894;28;20030;-48
2021/08/15 10:21:55;;;;;;;12.95;10.57;;;18.60;99.90;;;;;;4990886;28;20022;-48
2021/08/15 10:24:21;;;;;;;15.32;10.40;;;18.70;99.90;;;;;;4984936;28;20026;-54
2021/08/15 10:26:50;;;;;;;14.55;8.50;;;18.70;99.90;;;;;;4989992;28;20038;-53
2021/08/15 10:29:36;;;;;;;10.30;7.78;;;18.70;99.90;;;;;;5013352;23;20038;-49
2021/08/15 10:32:07;;;;;;;18.48;8.70;;;18.80;99.90;;;;;;4989343;28;20496;-50
2021/08/15 10:34:54;;;;;;;12.93;8.57;;;18.80;99.90;;;;;;4989353;28;20026;-49
2021/08/15 10:37:22;;;;;;;14.50;8.57;;;18.80;99.90;;;;;;4980868;28;20030;-47
2021/08/15 10:39:49;;;;;;;10.13;8.23;;;18.90;99.90;;;;;;4990052;28;20018;-50
2021/08/15 10:42:39;;;;;;;9.85;8.18;;;18.90;99.90;;;;;;4989850;28;20329;-48
2021/08/15 10:45:09;;;;;;;10.88;8.45;;;18.90;99.90;;;;;;4989299;28;20042;-49
2021/08/15 10:47:36;;;;;;;11.20;9.20;;;19.00;99.90;;;;;;4987234;28;20501;-49
2021/08/15 10:50:03;;;;;;;10.05;8.25;;;19.00;99.90;;;;;;4977807;28;20026;-48
2021/08/15 10:52:34;;;;;;;13.85;7.72;;;19.10;99.90;;;;;;4979475;28;20484;-51
2021/08/15 10:55:02;;;;;;;13.35;8.70;;;19.20;99.90;;;;;;4989600;28;20040;-49
2021/08/15 10:57:35;;;;;;;9.68;7.63;;;19.20;99.90;;;;;;4989784;28;20420;-50
2021/08/15 11:00:01;;;;;;;13.82;8.40;;;19.30;99.90;;;;;;4989324;28;20018;-49
2021/08/15 11:02:33;;;;;;;14.43;8.45;;;19.40;99.90;;;;;;4989529;28;20048;-50
2021/08/15 11:05:00;;;;;;;8.00;6.32;;;19.40;99.90;;;;;;4989101;28;20019;-50
2021/08/15 11:07:37;;;;;;;9.25;7.35;;;19.40;99.90;;;;;;4989092;28;20212;-51
2021/08/15 11:10:12;;;;;;;10.30;7.25;;;19.60;99.90;;;;;;4989278;28;20061;-53
2021/08/15 11:13:23;;;;;;;11.85;7.57;;;19.60;99.90;;;;;;4979937;28;20493;-51
2021/08/15 11:15:48;;;;;;;11.10;7.57;;;19.70;99.90;;;;;;4977585;28;20037;-49
2021/08/15 11:18:15;;;;;;;7.93;6.28;;;19.80;99.90;;;;;;4988738;28;20019;-51
2021/08/15 11:20:49;;;;;;;11.65;7.80;;;19.80;99.90;;;;;;4989244;28;20026;-51
2021/08/15 11:23:17;;;;;;;8.98;6.85;;;20.00;99.90;;;;;;4988714;28;20026;-49
2021/08/15 11:25:44;;;;;;;7.63;6.78;;;20.20;99.90;;;;;;4987888;28;20026;-51
2021/08/15 11:28:09;;;;;;;9.70;7.15;;;20.20;99.90;;;;;;4988826;28;20030;-52
2021/08/15 11:30:36;;;;;;;9.93;7.38;;;20.30;99.90;;;;;;4987104;28;20030;-54
2021/08/15 11:33:05;;;;;;;15.10;8.23;;;20.30;99.90;;;;;;4988828;28;20049;-51
2021/08/15 11:35:34;;;;;;;11.43;7.75;;;20.40;99.90;;;;;;4988247;28;20026;-52
2021/08/15 11:38:00;;;;;;;14.65;7.60;;;20.40;99.90;;;;;;4988606;28;20105;-51
2021/08/15 11:40:31;;;;;;;11.40;8.15;;;20.50;99.90;;;;;;4988929;28;20038;-53
2021/08/15 11:43:04;;;;;;;15.27;8.90;;;20.70;99.90;;;;;;4988700;28;20028;-50
2021/08/15 11:45:35;;;;;;;11.93;7.85;;;20.90;99.90;;;;;;4988393;28;20076;-54
2021/08/15 11:48:22;;;;;;;10.40;7.40;;;20.90;99.90;;;;;;4988693;28;20519;-55
2021/08/15 11:51:03;;;;;;;12.88;8.60;;;21.10;99.90;;;;;;4988449;28;20030;-53
2021/08/15 11:53:30;;;;;;;16.02;8.90;;;21.30;99.90;;;;;;4982206;28;20050;-54
2021/08/15 11:56:07;;;;;;;15.38;9.77;;;21.40;99.90;;;;;;4988483;28;20026;-53
2021/08/15 11:58:33;;;;;;;13.23;8.35;;;21.40;99.90;;;;;;4989144;28;20105;-52
2021/08/15 12:01:08;;;;;;;12.60;8.68;;;21.40;99.90;;;;;;4989291;28;20049;-52
2021/08/15 12:03:34;;;;;;;17.15;8.30;;;21.50;99.90;;;;;;4989395;28;20022;-50
2021/08/15 12:06:06;;;;;;;12.73;8.07;;;21.50;99.90;;;;;;4987842;28;20033;-52
2021/08/15 12:08:39;;;;;;;17.70;8.55;;;21.40;99.90;;;;;;4988630;28;20027;-53
2021/08/15 12:11:27;;;;;;;11.68;7.65;;;21.50;99.90;;;;;;4988573;28;20033;-53
2021/08/15 12:14:13;;;;;;;9.10;6.00;;;21.60;99.90;;;;;;4983847;28;20441;-52
2021/08/15 12:16:50;;;;;;;13.10;6.30;;;21.60;99.90;;;;;;4983238;28;20050;-52
2021/08/15 12:19:23;;;;;;;8.18;5.72;;;21.70;99.90;;;;;;4987708;28;20484;-51
2021/08/15 12:21:49;;;;;;;10.68;6.10;;;21.80;99.90;;;;;;4988756;28;20436;-51
2021/08/15 12:24:21;;;;;;;9.32;5.95;;;21.80;99.90;;;;;;4988457;28;20026;-52
2021/08/15 12:27:03;;;;;;;15.00;6.78;;;21.90;99.90;;;;;;4987533;28;20023;-51
2021/08/15 12:29:39;;;;;;;11.63;6.32;;;21.90;99.90;;;;;;4988640;28;20101;-50
2021/08/15 12:32:09;;;;;;;9.20;5.80;;;21.90;99.90;;;;;;4988805;28;20684;-54
2021/08/15 12:34:45;;;;;;;12.38;6.70;;;22.00;99.90;;;;;;4987972;28;20154;-51
2021/08/15 12:37:17;;;;;;;8.07;5.80;;;22.00;99.90;;;;;;4988148;28;20031;-51
2021/08/15 12:39:45;;;;;;;8.95;5.43;;;22.10;99.90;;;;;;4988260;28;20019;-51
2021/08/15 12:42:17;;;;;;;11.05;7.07;;;22.20;99.90;;;;;;4988380;28;20026;-50
2021/08/15 12:44:55;;;;;;;11.52;6.53;;;22.30;99.90;;;;;;4987713;28;20102;-51